createdAt,value
2016-06-09T00:00:16.532Z,13.91
2016-06-09T00:01:16.521Z,13.94
2016-06-09T00:02:16.508Z,13.79
2016-06-09T00:03:16.323Z,13.95
2016-06-09T00:04:16.451Z,13.96
2016-06-09T00:05:16.423Z,13.92
2016-06-09T00:06:16.411Z,13.96
2016-06-09T00:07:16.382Z,13.91
2016-06-09T00:08:16.371Z,13.94
2016-06-09T00:09:16.341Z,13.98
2016-06-09T00:10:16.330Z,13.91
2016-06-09T00:11:16.285Z,13.98
2016-06-09T00:12:16.269Z,13.96
2016-06-09T00:13:16.241Z,13.92
2016-06-09T00:14:16.244Z,13.98
2016-06-09T00:15:16.200Z,13.98
2016-06-09T00:16:16.172Z,13.98
2016-06-09T00:17:16.159Z,14.04
2016-06-09T00:18:16.554Z,13.98
2016-06-09T00:19:16.275Z,13.94
2016-06-09T00:20:15.951Z,14.01
2016-06-09T00:21:16.094Z,14.01
2016-06-09T00:22:16.050Z,13.98
2016-06-09T00:23:16.038Z,14.04
2016-06-09T00:24:16.026Z,13.99
2016-06-09T00:25:15.981Z,13.96
2016-06-09T00:26:15.969Z,13.95
2016-06-09T00:27:15.941Z,14.01
2016-06-09T00:28:15.944Z,13.98
2016-06-09T00:29:15.916Z,13.95
2016-06-09T00:30:15.871Z,13.98
2016-06-09T00:31:15.844Z,13.98
2016-06-09T00:32:15.831Z,13.99
2016-06-09T00:33:16.678Z,13.94
2016-06-09T00:34:16.212Z,13.91
2016-06-09T00:35:15.778Z,13.89
2016-06-09T00:36:15.751Z,13.94
2016-06-09T00:37:15.737Z,13.96
2016-06-09T00:38:15.709Z,13.92
2016-06-09T00:39:15.525Z,13.98
2016-06-09T00:40:15.652Z,13.92
2016-06-09T00:41:15.624Z,13.94
2016-06-09T00:42:15.628Z,13.92
2016-06-09T00:43:15.600Z,13.91
2016-06-09T00:44:15.570Z,13.84
2016-06-09T00:45:15.543Z,13.84
2016-06-09T00:46:15.514Z,13.81
2016-06-09T00:47:15.502Z,13.83
2016-06-09T00:48:15.490Z,13.81
2016-06-09T00:49:15.321Z,13.8
2016-06-09T00:50:15.449Z,13.65
2016-06-09T00:51:15.405Z,13.73
2016-06-09T00:52:15.393Z,13.73
2016-06-09T00:53:15.223Z,13.74
2016-06-09T00:54:15.352Z,13.67
2016-06-09T00:55:15.324Z,13.7
2016-06-09T00:56:15.295Z,13.59
2016-06-09T00:57:15.126Z,13.67
2016-06-09T00:58:15.255Z,13.67
2016-06-09T00:59:15.242Z,13.67
2016-06-09T01:00:15.230Z,13.58
2016-06-09T01:01:15.186Z,13.58
2016-06-09T01:02:15.173Z,13.51
2016-06-09T01:03:15.270Z,13.56
2016-06-09T01:04:15.211Z,13.55
2016-06-09T01:05:15.104Z,13.4
2016-06-09T01:06:15.093Z,13.49
2016-06-09T01:07:15.063Z,13.37
2016-06-09T01:08:15.051Z,13.4
2016-06-09T01:09:15.022Z,13.3
2016-06-09T01:10:14.995Z,13.25
2016-06-09T01:11:14.967Z,13.29
2016-06-09T01:12:14.954Z,13.29
2016-06-09T01:13:14.926Z,13.2
2016-06-09T01:14:14.913Z,13.17
2016-06-09T01:15:14.885Z,13.17
2016-06-09T01:16:14.857Z,13.15
2016-06-09T01:17:14.844Z,13.06
2016-06-09T01:18:14.847Z,13.07
2016-06-09T01:19:15.711Z,13.07
2016-06-09T01:20:14.791Z,13
2016-06-09T01:21:14.747Z,13.02
2016-06-09T01:22:14.720Z,13.04
2016-06-09T01:23:14.707Z,12.96
2016-06-09T01:24:14.693Z,12.87
2016-06-09T01:25:14.682Z,12.89
2016-06-09T01:26:14.638Z,12.92
2016-06-09T01:27:14.610Z,12.81
2016-06-09T01:28:14.596Z,12.79
2016-06-09T01:29:14.569Z,12.84
2016-06-09T01:30:14.401Z,12.77
2016-06-09T01:31:14.528Z,12.89
2016-06-09T01:32:14.515Z,12.82
2016-06-09T01:33:14.487Z,12.85
2016-06-09T01:34:14.913Z,12.81
2016-06-09T01:35:14.431Z,12.85
2016-06-09T01:36:14.418Z,12.84
2016-06-09T01:37:14.406Z,12.85
2016-06-09T01:38:14.377Z,12.89
2016-06-09T01:39:14.350Z,12.93
2016-06-09T01:40:14.322Z,12.93
2016-06-09T01:41:14.293Z,12.87
2016-06-09T01:42:14.281Z,12.88
2016-06-09T01:43:14.252Z,12.95
2016-06-09T01:44:14.224Z,12.99
2016-06-09T01:45:14.212Z,12.89
2016-06-09T01:46:14.184Z,12.89
2016-06-09T01:47:14.155Z,12.89
2016-06-09T01:48:14.612Z,12.87
2016-06-09T01:49:15.193Z,12.88
2016-06-09T01:50:14.103Z,12.92
2016-06-09T01:51:14.074Z,12.92
2016-06-09T01:52:13.890Z,13.03
2016-06-09T01:53:14.033Z,13.06
2016-06-09T01:54:14.005Z,13
2016-06-09T01:55:13.992Z,13
2016-06-09T01:56:13.964Z,13
2016-06-09T01:57:13.936Z,12.99
2016-06-09T01:58:13.908Z,13.02
2016-06-09T01:59:13.926Z,13.02
2016-06-09T02:00:13.884Z,13.09
2016-06-09T02:01:13.854Z,13.06
2016-06-09T02:02:13.826Z,13.03
2016-06-09T02:03:13.799Z,13.15
2016-06-09T02:04:13.974Z,13.12
2016-06-09T02:05:13.758Z,13.06
2016-06-09T02:06:13.730Z,13.17
2016-06-09T02:07:13.717Z,13.18
2016-06-09T02:08:13.704Z,13.18
2016-06-09T02:09:13.676Z,13.21
2016-06-09T02:10:13.648Z,13.12
2016-06-09T02:11:13.620Z,13.18
2016-06-09T02:12:13.591Z,13.25
2016-06-09T02:13:13.579Z,13.27
2016-06-09T02:14:13.552Z,13.25
2016-06-09T02:15:13.538Z,13.3
2016-06-09T02:16:13.511Z,13.33
2016-06-09T02:17:13.498Z,13.24
2016-06-09T02:18:13.454Z,13.33
2016-06-09T02:19:14.284Z,13.36
2016-06-09T02:20:13.429Z,13.36
2016-06-09T02:21:13.401Z,13.43
2016-06-09T02:22:13.387Z,13.41
2016-06-09T02:23:13.360Z,13.49
2016-06-09T02:24:13.332Z,13.51
2016-06-09T02:25:13.303Z,13.51
2016-06-09T02:26:13.291Z,13.43
2016-06-09T02:27:13.262Z,13.4
2016-06-09T02:28:13.234Z,13.55
2016-06-09T02:29:13.238Z,13.55
2016-06-09T02:30:13.194Z,13.46
2016-06-09T02:31:13.182Z,13.58
2016-06-09T02:32:13.153Z,13.56
2016-06-09T02:33:13.125Z,13.59
2016-06-09T02:34:13.956Z,13.51
2016-06-09T02:35:13.084Z,13.52
2016-06-09T02:36:13.056Z,13.55
2016-06-09T02:37:13.043Z,13.59
2016-06-09T02:38:13.031Z,13.59
2016-06-09T02:39:12.988Z,13.61
2016-06-09T02:40:12.974Z,13.59
2016-06-09T02:41:12.946Z,13.61
2016-06-09T02:42:12.934Z,13.63
2016-06-09T02:43:12.922Z,13.69
2016-06-09T02:44:12.736Z,13.58
2016-06-09T02:45:12.865Z,13.59
2016-06-09T02:46:12.836Z,13.69
2016-06-09T02:47:12.824Z,13.56
2016-06-09T02:48:12.796Z,13.63
2016-06-09T02:49:12.798Z,13.69
2016-06-09T02:50:12.771Z,13.74
2016-06-09T02:51:12.727Z,13.67
2016-06-09T02:52:12.714Z,13.74
2016-06-09T02:53:12.702Z,13.71
2016-06-09T02:54:12.658Z,13.65
2016-06-09T02:55:12.661Z,13.67
2016-06-09T02:56:12.618Z,13.74
2016-06-09T02:57:12.604Z,13.73
2016-06-09T02:58:12.592Z,13.73
2016-06-09T02:59:12.565Z,13.74
2016-06-09T03:00:12.521Z,13.74
2016-06-09T03:01:12.507Z,13.73
2016-06-09T03:02:12.495Z,13.71
2016-06-09T03:03:12.483Z,13.73
2016-06-09T03:04:12.626Z,13.73
2016-06-09T03:05:12.426Z,13.67
2016-06-09T03:06:12.415Z,13.63
2016-06-09T03:07:12.385Z,13.67
2016-06-09T03:08:12.357Z,13.69
2016-06-09T03:09:12.330Z,13.71
2016-06-09T03:10:12.317Z,13.74
2016-06-09T03:11:12.288Z,13.65
2016-06-09T03:12:12.120Z,13.7
2016-06-09T03:13:12.248Z,13.69
2016-06-09T03:14:12.251Z,13.69
2016-06-09T03:15:12.191Z,13.73
2016-06-09T03:16:12.179Z,13.71
2016-06-09T03:17:12.166Z,13.7
2016-06-09T03:18:12.138Z,13.67
2016-06-09T03:19:11.829Z,13.65
2016-06-09T03:20:12.097Z,13.69
2016-06-09T03:21:12.069Z,13.76
2016-06-09T03:22:11.900Z,13.7
2016-06-09T03:23:12.044Z,13.7
2016-06-09T03:24:12.000Z,13.69
2016-06-09T03:25:11.987Z,13.73
2016-06-09T03:26:11.960Z,13.63
2016-06-09T03:27:11.947Z,13.71
2016-06-09T03:28:11.918Z,13.73
2016-06-09T03:29:11.891Z,13.73
2016-06-09T03:30:11.878Z,13.63
2016-06-09T03:31:11.850Z,13.69
2016-06-09T03:32:11.837Z,13.67
2016-06-09T03:33:11.810Z,13.7
2016-06-09T03:34:11.797Z,13.71
2016-06-09T03:35:11.768Z,13.73
2016-06-09T03:36:11.741Z,13.67
2016-06-09T03:37:11.713Z,13.73
2016-06-09T03:38:11.715Z,13.71
2016-06-09T03:39:11.672Z,13.74
2016-06-09T03:40:11.659Z,13.74
2016-06-09T03:41:11.631Z,13.71
2016-06-09T03:42:11.602Z,13.71
2016-06-09T03:43:11.590Z,13.69
2016-06-09T03:44:11.562Z,13.69
2016-06-09T03:45:11.549Z,13.76
2016-06-09T03:46:11.521Z,13.77
2016-06-09T03:47:11.524Z,13.76
2016-06-09T03:48:11.496Z,13.76
2016-06-09T03:49:12.343Z,13.77
2016-06-09T03:50:12.065Z,13.74
2016-06-09T03:51:11.411Z,13.77
2016-06-09T03:52:11.398Z,13.77
2016-06-09T03:53:11.371Z,13.8
2016-06-09T03:54:11.187Z,13.8
2016-06-09T03:55:11.314Z,13.8
2016-06-09T03:56:11.302Z,13.76
2016-06-09T03:57:11.274Z,13.83
2016-06-09T03:58:11.246Z,13.8
2016-06-09T03:59:11.233Z,13.83
2016-06-09T04:00:11.220Z,13.83
2016-06-09T04:01:11.192Z,13.87
2016-06-09T04:02:11.164Z,13.87
2016-06-09T04:03:11.137Z,13.8
2016-06-09T04:04:11.140Z,13.8
2016-06-09T04:05:11.110Z,13.8
2016-06-09T04:06:11.067Z,13.79
2016-06-09T04:07:11.055Z,13.81
2016-06-09T04:08:11.027Z,13.81
2016-06-09T04:09:10.857Z,13.92
2016-06-09T04:10:10.986Z,13.91
2016-06-09T04:11:10.973Z,13.94
2016-06-09T04:12:10.945Z,13.98
2016-06-09T04:13:10.932Z,13.96
2016-06-09T04:14:10.904Z,13.91
2016-06-09T04:15:10.876Z,14.02
2016-06-09T04:16:10.864Z,13.96
2016-06-09T04:17:10.836Z,14.04
2016-06-09T04:18:10.807Z,14.1
2016-06-09T04:19:11.560Z,14.1
2016-06-09T04:20:10.782Z,14.02
2016-06-09T04:21:10.754Z,14.02
2016-06-09T04:22:10.725Z,14.16
2016-06-09T04:23:10.713Z,14.12
2016-06-09T04:24:10.701Z,14.09
2016-06-09T04:25:10.516Z,14.25
2016-06-09T04:26:10.644Z,14.19
2016-06-09T04:27:10.616Z,14.21
2016-06-09T04:28:10.619Z,14.17
2016-06-09T04:29:10.591Z,14.28
2016-06-09T04:30:10.563Z,14.35
2016-06-09T04:31:10.519Z,14.28
2016-06-09T04:32:10.522Z,14.31
2016-06-09T04:33:10.493Z,14.31
2016-06-09T04:34:10.716Z,14.38
2016-06-09T04:35:10.453Z,14.39
2016-06-09T04:36:10.424Z,14.42
2016-06-09T04:37:10.397Z,14.43
2016-06-09T04:38:10.384Z,14.39
2016-06-09T04:39:10.356Z,14.54
2016-06-09T04:40:10.343Z,14.52
2016-06-09T04:41:10.315Z,14.64
2016-06-09T04:42:10.146Z,14.71
2016-06-09T04:43:10.118Z,14.72
2016-06-09T04:44:10.247Z,14.86
2016-06-09T04:45:10.233Z,14.83
2016-06-09T04:46:10.205Z,14.87
2016-06-09T04:47:10.193Z,14.8
2016-06-09T04:48:10.181Z,14.81
2016-06-09T04:49:10.339Z,14.93
2016-06-09T04:50:10.156Z,14.81
2016-06-09T04:51:10.112Z,14.83
2016-06-09T04:52:10.083Z,14.84
2016-06-09T04:53:10.071Z,14.86
2016-06-09T04:54:10.043Z,14.93
2016-06-09T04:55:10.030Z,14.78
2016-06-09T04:56:09.845Z,14.81
2016-06-09T04:57:09.973Z,14.9
2016-06-09T04:58:09.962Z,14.88
2016-06-09T04:59:09.949Z,14.88
2016-06-09T05:00:09.904Z,14.87
2016-06-09T05:01:09.893Z,14.84
2016-06-09T05:02:09.880Z,14.88
2016-06-09T05:03:09.852Z,14.86
2016-06-09T05:04:10.105Z,14.75
2016-06-09T05:05:09.701Z,14.75
2016-06-09T05:06:09.783Z,14.75
2016-06-09T05:07:09.770Z,14.71
2016-06-09T05:08:09.757Z,14.69
2016-06-09T05:09:09.730Z,14.68
2016-06-09T05:10:09.701Z,14.69
2016-06-09T05:11:09.688Z,14.67
2016-06-09T05:12:09.661Z,14.67
2016-06-09T05:13:09.648Z,14.68
2016-06-09T05:14:09.619Z,14.67
2016-06-09T05:15:09.623Z,14.75
2016-06-09T05:16:09.439Z,14.62
2016-06-09T05:17:09.551Z,14.52
2016-06-09T05:18:09.538Z,14.68
2016-06-09T05:19:09.510Z,14.67
2016-06-09T05:20:10.232Z,14.69
2016-06-09T05:21:09.469Z,14.65
2016-06-09T05:22:09.441Z,14.71
2016-06-09T05:23:09.428Z,14.71
2016-06-09T05:24:09.416Z,14.68
2016-06-09T05:25:09.388Z,14.65
2016-06-09T05:26:09.360Z,14.67
2016-06-09T05:27:09.332Z,14.71
2016-06-09T05:28:09.319Z,14.75
2016-06-09T05:29:09.306Z,14.62
2016-06-09T05:30:09.279Z,14.6
2016-06-09T05:31:09.266Z,14.62
2016-06-09T05:32:09.238Z,14.65
2016-06-09T05:33:09.225Z,14.74
2016-06-09T05:34:09.181Z,14.68
2016-06-09T05:35:09.184Z,14.68
2016-06-09T05:36:09.157Z,14.6
2016-06-09T05:37:09.128Z,14.65
2016-06-09T05:38:09.115Z,14.65
2016-06-09T05:39:09.087Z,14.53
2016-06-09T05:40:09.075Z,14.52
2016-06-09T05:41:09.047Z,14.44
2016-06-09T05:42:09.034Z,14.42
2016-06-09T05:43:09.006Z,14.49
2016-06-09T05:44:08.977Z,14.44
2016-06-09T05:45:08.965Z,14.42
2016-06-09T05:46:08.936Z,14.49
2016-06-09T05:47:08.924Z,14.56
2016-06-09T05:48:08.896Z,14.53
2016-06-09T05:49:08.868Z,14.53
2016-06-09T05:50:08.902Z,14.52
2016-06-09T05:51:08.827Z,14.44
2016-06-09T05:52:08.814Z,14.46
2016-06-09T05:53:08.802Z,14.49
2016-06-09T05:54:08.758Z,14.42
2016-06-09T05:55:08.746Z,14.42
2016-06-09T05:56:08.718Z,14.53
2016-06-09T05:57:08.704Z,14.46
2016-06-09T05:58:08.677Z,14.44
2016-06-09T05:59:08.664Z,14.34
2016-06-09T06:00:08.636Z,14.44
2016-06-09T06:01:08.624Z,14.46
2016-06-09T06:02:08.596Z,14.52
2016-06-09T06:03:08.567Z,14.38
2016-06-09T06:04:08.555Z,14.39
2016-06-09T06:05:08.526Z,14.39
2016-06-09T06:06:08.498Z,14.39
2016-06-09T06:07:08.485Z,14.38
2016-06-09T06:08:08.457Z,14.43
2016-06-09T06:09:08.444Z,14.46
2016-06-09T06:10:08.417Z,14.44
2016-06-09T06:11:08.405Z,14.54
2016-06-09T06:12:08.376Z,14.67
2016-06-09T06:13:08.207Z,14.62
2016-06-09T06:14:08.335Z,14.75
2016-06-09T06:15:08.323Z,14.6
2016-06-09T06:16:08.295Z,14.64
2016-06-09T06:17:08.266Z,14.68
2016-06-09T06:18:08.254Z,14.68
2016-06-09T06:19:08.226Z,14.81
2016-06-09T06:20:08.214Z,14.8
2016-06-09T06:21:08.186Z,14.78
2016-06-09T06:22:08.173Z,14.75
2016-06-09T06:23:08.145Z,14.8
2016-06-09T06:24:08.132Z,14.8
2016-06-09T06:25:08.104Z,14.78
2016-06-09T06:26:07.919Z,14.69
2016-06-09T06:27:08.063Z,14.67
2016-06-09T06:28:08.035Z,14.8
2016-06-09T06:29:08.022Z,14.91
2016-06-09T06:30:07.995Z,14.9
2016-06-09T06:31:07.981Z,14.84
2016-06-09T06:32:07.953Z,14.91
2016-06-09T06:33:07.925Z,14.86
2016-06-09T06:34:07.897Z,15.02
2016-06-09T06:35:07.899Z,15.03
2016-06-09T06:36:07.872Z,14.93
2016-06-09T06:37:07.844Z,14.86
2016-06-09T06:38:07.831Z,14.99
2016-06-09T06:39:07.803Z,14.95
2016-06-09T06:40:07.790Z,15.09
2016-06-09T06:41:07.762Z,15.12
2016-06-09T06:42:07.593Z,15.09
2016-06-09T06:43:07.721Z,15.2
2016-06-09T06:44:07.694Z,15.12
2016-06-09T06:45:07.680Z,15.08
2016-06-09T06:46:07.652Z,15.11
2016-06-09T06:47:07.655Z,15.15
2016-06-09T06:48:07.612Z,15.11
2016-06-09T06:49:07.600Z,15.28
2016-06-09T06:50:07.806Z,15.38
2016-06-09T06:51:07.543Z,15.52
2016-06-09T06:52:07.530Z,15.82
2016-06-09T06:53:07.502Z,16.22
2016-06-09T06:54:07.490Z,16.55
2016-06-09T06:55:07.461Z,16.93
2016-06-09T06:56:07.449Z,16.96
2016-06-09T06:57:07.436Z,17.06
2016-06-09T06:58:07.424Z,17.07
2016-06-09T06:59:07.412Z,17.08
2016-06-09T07:00:07.212Z,17.17
2016-06-09T07:01:07.370Z,17.32
2016-06-09T07:02:07.357Z,17.22
2016-06-09T07:03:07.315Z,17.23
2016-06-09T07:04:07.302Z,17.32
2016-06-09T07:05:07.507Z,17.32
2016-06-09T07:06:07.339Z,17.14
2016-06-09T07:07:07.248Z,17.14
2016-06-09T07:08:07.220Z,17.08
2016-06-09T07:09:07.208Z,17.1
2016-06-09T07:10:07.179Z,16.95
2016-06-09T07:11:07.183Z,16.88
2016-06-09T07:12:06.998Z,16.89
2016-06-09T07:13:07.141Z,16.8
2016-06-09T07:14:07.113Z,16.67
2016-06-09T07:15:07.086Z,16.67
2016-06-09T07:16:06.916Z,16.67
2016-06-09T07:17:07.061Z,16.45
2016-06-09T07:18:07.031Z,16.45
2016-06-09T07:19:07.004Z,16.45
2016-06-09T07:20:07.117Z,16.52
2016-06-09T07:21:06.823Z,16.45
2016-06-09T07:22:06.966Z,16.5
2016-06-09T07:23:06.938Z,16.48
2016-06-09T07:24:06.910Z,16.49
2016-06-09T07:25:06.897Z,16.55
2016-06-09T07:26:06.729Z,16.5
2016-06-09T07:27:06.857Z,16.59
2016-06-09T07:28:06.673Z,16.6
2016-06-09T07:29:06.815Z,16.6
2016-06-09T07:30:06.632Z,16.58
2016-06-09T07:31:06.776Z,16.59
2016-06-09T07:32:06.607Z,16.58
2016-06-09T07:33:06.735Z,16.52
2016-06-09T07:34:06.705Z,16.53
2016-06-09T07:35:06.694Z,16.44
2016-06-09T07:36:06.556Z,16.52
2016-06-09T07:37:06.653Z,16.35
2016-06-09T07:38:06.640Z,16.42
2016-06-09T07:39:06.612Z,16.58
2016-06-09T07:40:06.599Z,16.65
2016-06-09T07:41:06.587Z,16.55
2016-06-09T07:42:06.559Z,16.63
2016-06-09T07:43:06.547Z,16.56
2016-06-09T07:44:06.518Z,16.42
2016-06-09T07:45:06.350Z,16.3
2016-06-09T07:46:06.478Z,16.31
2016-06-09T07:47:06.465Z,16.38
2016-06-09T07:48:06.437Z,16.37
2016-06-09T07:49:06.409Z,16.4
2016-06-09T07:50:06.818Z,16.55
2016-06-09T07:51:06.962Z,16.58
2016-06-09T07:52:06.356Z,16.62
2016-06-09T07:53:06.343Z,16.71
2016-06-09T07:54:06.346Z,16.74
2016-06-09T07:55:06.302Z,16.65
2016-06-09T07:56:06.290Z,16.58
2016-06-09T07:57:06.262Z,16.67
2016-06-09T07:58:06.249Z,16.68
2016-06-09T07:59:06.220Z,16.63
2016-06-09T08:00:06.208Z,16.73
2016-06-09T08:01:06.024Z,16.81
2016-06-09T08:02:06.152Z,16.9
2016-06-09T08:03:06.155Z,16.9
2016-06-09T08:04:06.127Z,16.83
2016-06-09T08:05:05.958Z,16.81
2016-06-09T08:06:06.134Z,16.88
2016-06-09T08:07:06.073Z,16.9
2016-06-09T08:08:06.046Z,16.9
2016-06-09T08:09:06.049Z,16.95
2016-06-09T08:10:06.004Z,16.89
2016-06-09T08:11:05.992Z,17
2016-06-09T08:12:05.964Z,17.07
2016-06-09T08:13:05.950Z,17.06
2016-06-09T08:14:05.939Z,17.11
2016-06-09T08:15:05.910Z,17.15
2016-06-09T08:16:05.742Z,17.08
2016-06-09T08:17:05.870Z,17.26
2016-06-09T08:18:05.857Z,17.26
2016-06-09T08:19:05.673Z,17.28
2016-06-09T08:20:05.661Z,17.28
2016-06-09T08:21:05.788Z,17.29
2016-06-09T08:22:05.776Z,17.03
2016-06-09T08:23:05.763Z,17.23
2016-06-09T08:24:05.735Z,17.25
2016-06-09T08:25:05.740Z,17.23
2016-06-09T08:26:05.739Z,17.33
2016-06-09T08:27:05.628Z,17.5
2016-06-09T08:28:05.798Z,17.43
2016-06-09T08:29:05.814Z,17.2
2016-06-09T08:30:05.842Z,17.32
2016-06-09T08:31:05.829Z,17.62
2016-06-09T08:32:05.833Z,17.67
2016-06-09T08:33:05.819Z,17.73
2016-06-09T08:34:05.822Z,17.69
2016-06-09T08:35:06.637Z,17.73
2016-06-09T08:36:06.021Z,17.79
2016-06-09T08:37:05.795Z,17.81
2016-06-09T08:38:05.772Z,17.89
2016-06-09T08:39:05.764Z,17.97
2016-06-09T08:40:05.772Z,18.1
2016-06-09T08:41:05.746Z,18.12
2016-06-09T08:42:05.721Z,17.89
2016-06-09T08:43:05.695Z,17.89
2016-06-09T08:44:05.684Z,17.74
2016-06-09T08:45:05.672Z,17.82
2016-06-09T08:46:05.504Z,17.88
2016-06-09T08:47:05.649Z,17.95
2016-06-09T08:48:05.622Z,17.85
2016-06-09T08:49:05.438Z,17.81
2016-06-09T08:50:06.224Z,17.81
2016-06-09T08:51:05.883Z,17.89
2016-06-09T08:52:05.542Z,17.87
2016-06-09T08:53:05.546Z,17.95
2016-06-09T08:54:05.534Z,17.85
2016-06-09T08:55:05.491Z,17.84
2016-06-09T08:56:05.463Z,17.78
2016-06-09T08:57:05.450Z,17.55
2016-06-09T08:58:05.438Z,17.29
2016-06-09T08:59:05.410Z,17.26
2016-06-09T09:00:05.396Z,17.33
2016-06-09T09:01:05.368Z,17.26
2016-06-09T09:02:05.371Z,17.41
2016-06-09T09:03:05.343Z,17.25
2016-06-09T09:04:05.330Z,17.35
2016-06-09T09:05:05.803Z,17.33
2016-06-09T09:06:05.321Z,17.35
2016-06-09T09:07:05.262Z,17.36
2016-06-09T09:08:05.093Z,17.4
2016-06-09T09:09:05.221Z,17.33
2016-06-09T09:10:05.208Z,17.29
2016-06-09T09:11:05.197Z,17.48
2016-06-09T09:12:05.183Z,17.64
2016-06-09T09:13:05.156Z,17.66
2016-06-09T09:14:05.143Z,17.63
2016-06-09T09:15:05.131Z,17.67
2016-06-09T09:16:05.101Z,17.74
2016-06-09T09:17:05.074Z,17.73
2016-06-09T09:18:05.062Z,17.7
2016-06-09T09:19:05.033Z,17.87
2016-06-09T09:20:05.318Z,17.85
2016-06-09T09:21:05.164Z,17.92
2016-06-09T09:22:05.011Z,17.84
2016-06-09T09:23:04.967Z,17.84
2016-06-09T09:24:04.955Z,17.85
2016-06-09T09:25:04.926Z,17.89
2016-06-09T09:26:04.898Z,17.81
2016-06-09T09:27:04.729Z,17.84
2016-06-09T09:28:04.874Z,17.95
2016-06-09T09:29:04.860Z,17.99
2016-06-09T09:30:04.848Z,17.88
2016-06-09T09:31:04.820Z,17.92
2016-06-09T09:32:04.791Z,17.95
2016-06-09T09:33:04.778Z,18
2016-06-09T09:34:04.751Z,18.13
2016-06-09T09:35:04.754Z,18.1
2016-06-09T09:36:05.960Z,18.1
2016-06-09T09:37:04.713Z,18.1
2016-06-09T09:38:04.702Z,18.21
2016-06-09T09:39:04.672Z,18.09
2016-06-09T09:40:04.644Z,18.1
2016-06-09T09:41:04.632Z,18.09
2016-06-09T09:42:04.620Z,18.03
2016-06-09T09:43:04.591Z,18.09
2016-06-09T09:44:04.563Z,18.15
2016-06-09T09:45:04.551Z,18.07
2016-06-09T09:46:04.538Z,18.21
2016-06-09T09:47:04.510Z,18.28
2016-06-09T09:48:04.496Z,18.07
2016-06-09T09:49:04.485Z,18.22
2016-06-09T09:50:04.472Z,18.4
2016-06-09T09:51:04.523Z,18.42
2016-06-09T09:52:04.432Z,18.42
2016-06-09T09:53:04.403Z,18.42
2016-06-09T09:54:04.390Z,18.33
2016-06-09T09:55:04.379Z,18.21
2016-06-09T09:56:04.350Z,18.42
2016-06-09T09:57:04.321Z,18.36
2016-06-09T09:58:04.310Z,18.31
2016-06-09T09:59:04.296Z,18.18
2016-06-09T10:00:04.269Z,18.39
2016-06-09T10:01:04.256Z,18.54
2016-06-09T10:02:04.243Z,18.65
2016-06-09T10:03:04.059Z,18.57
2016-06-09T10:04:04.218Z,18.58
2016-06-09T10:05:04.190Z,18.59
2016-06-09T10:06:04.677Z,18.59
2016-06-09T10:07:04.149Z,18.68
2016-06-09T10:08:04.136Z,18.64
2016-06-09T10:09:04.125Z,18.49
2016-06-09T10:10:04.096Z,18.36
2016-06-09T10:11:04.068Z,18.33
2016-06-09T10:12:04.071Z,18.34
2016-06-09T10:13:04.043Z,18.34
2016-06-09T10:14:04.030Z,18.36
2016-06-09T10:15:04.002Z,18.36
2016-06-09T10:16:03.990Z,18.47
2016-06-09T10:17:03.977Z,18.46
2016-06-09T10:18:03.949Z,18.25
2016-06-09T10:19:03.936Z,18.21
2016-06-09T10:20:03.908Z,18.17
2016-06-09T10:21:04.209Z,18.28
2016-06-09T10:22:03.898Z,18.27
2016-06-09T10:23:03.855Z,18.34
2016-06-09T10:24:03.858Z,18.36
2016-06-09T10:25:03.829Z,18.34
2016-06-09T10:26:03.801Z,18.42
2016-06-09T10:27:03.789Z,18.47
2016-06-09T10:28:03.761Z,18.37
2016-06-09T10:29:03.748Z,18.42
2016-06-09T10:30:03.720Z,18.49
2016-06-09T10:31:03.708Z,18.54
2016-06-09T10:32:03.695Z,18.57
2016-06-09T10:33:03.682Z,18.61
2016-06-09T10:34:03.670Z,18.64
2016-06-09T10:35:03.641Z,18.61
2016-06-09T10:36:03.458Z,18.59
2016-06-09T10:37:03.600Z,18.61
2016-06-09T10:38:03.572Z,18.49
2016-06-09T10:39:03.575Z,18.55
2016-06-09T10:40:03.548Z,18.47
2016-06-09T10:41:03.535Z,18.67
2016-06-09T10:42:03.507Z,18.67
2016-06-09T10:43:03.494Z,18.65
2016-06-09T10:44:03.466Z,18.62
2016-06-09T10:45:03.454Z,18.57
2016-06-09T10:46:03.442Z,18.65
2016-06-09T10:47:03.413Z,18.7
2016-06-09T10:48:03.416Z,18.76
2016-06-09T10:49:03.388Z,18.84
2016-06-09T10:50:03.375Z,18.91
2016-06-09T10:51:03.363Z,18.82
2016-06-09T10:52:03.741Z,18.87
2016-06-09T10:53:03.150Z,18.91
2016-06-09T10:54:03.294Z,18.86
2016-06-09T10:55:03.280Z,18.84
2016-06-09T10:56:03.097Z,18.68
2016-06-09T10:57:03.256Z,18.74
2016-06-09T10:58:03.212Z,18.84
2016-06-09T10:59:03.200Z,18.9
2016-06-09T11:00:03.188Z,19.05
2016-06-09T11:01:03.174Z,18.99
2016-06-09T11:02:06.882Z,19.01
2016-06-09T11:03:03.134Z,19.08
2016-06-09T11:04:03.122Z,18.97
2016-06-09T11:05:03.109Z,18.95
2016-06-09T11:06:03.268Z,19.11
2016-06-09T11:07:03.459Z,19.08
2016-06-09T11:08:03.040Z,19.24
2016-06-09T11:09:03.028Z,19.17
2016-06-09T11:10:03.015Z,19.15
2016-06-09T11:11:02.987Z,19.23
2016-06-09T11:12:02.990Z,19.28
2016-06-09T11:13:02.993Z,19.23
2016-06-09T11:14:02.949Z,19.25
2016-06-09T11:15:02.764Z,18.98
2016-06-09T11:16:02.908Z,19.08
2016-06-09T11:17:02.880Z,19.14
2016-06-09T11:18:02.867Z,19.21
2016-06-09T11:19:02.699Z,19.28
2016-06-09T11:20:02.826Z,19.23
2016-06-09T11:21:03.049Z,19.32
2016-06-09T11:22:02.802Z,19.36
2016-06-09T11:23:02.774Z,19.43
2016-06-09T11:24:17.542Z,19.47
2016-06-09T11:25:02.764Z,19.4
2016-06-09T11:26:02.736Z,19.38
2016-06-09T11:27:02.708Z,19.46
2016-06-09T11:28:02.540Z,19.53
2016-06-09T11:29:02.667Z,19.46
2016-06-09T11:30:02.655Z,19.48
2016-06-09T11:31:02.626Z,19.43
2016-06-09T11:32:02.926Z,19.47
2016-06-09T11:33:02.602Z,19.33
2016-06-09T11:34:02.605Z,19.35
2016-06-09T11:35:02.560Z,19.38
2016-06-09T11:36:03.142Z,19.43
2016-06-09T11:37:02.395Z,19.42
2016-06-09T11:38:02.507Z,19.39
2016-06-09T11:39:02.510Z,19.46
2016-06-09T11:40:02.482Z,19.4
2016-06-09T11:41:02.470Z,19.31
2016-06-09T11:42:02.457Z,19.29
2016-06-09T11:43:02.429Z,19.24
2016-06-09T11:44:02.432Z,19.31
2016-06-09T11:45:02.389Z,19.28
2016-06-09T11:46:02.392Z,19.31
2016-06-09T11:47:02.363Z,19.21
2016-06-09T11:48:02.351Z,19.1
2016-06-09T11:49:02.321Z,19.2
2016-06-09T11:50:02.310Z,19.06
2016-06-09T11:51:03.078Z,19.08
2016-06-09T11:52:02.488Z,19.06
2016-06-09T11:53:02.256Z,19.14
2016-06-09T11:54:02.245Z,19.18
2016-06-09T11:55:02.215Z,19.28
2016-06-09T11:56:02.188Z,19.21
2016-06-09T11:57:02.175Z,19.28
2016-06-09T11:58:02.163Z,19.17
2016-06-09T11:59:02.150Z,19.24
2016-06-09T12:00:02.137Z,19.23
2016-06-09T12:01:02.109Z,19.33
2016-06-09T12:02:02.097Z,19.25
2016-06-09T12:03:02.069Z,19.24
2016-06-09T12:04:02.072Z,19.39
2016-06-09T12:05:02.059Z,19.4
2016-06-09T12:06:02.343Z,19.32
2016-06-09T12:07:02.393Z,19.15
2016-06-09T12:08:02.005Z,19.21
2016-06-09T12:09:01.962Z,19.31
2016-06-09T12:10:01.949Z,19.25
2016-06-09T12:11:01.937Z,19.29
2016-06-09T12:12:01.924Z,19.29
2016-06-09T12:13:01.895Z,19.33
2016-06-09T12:14:01.711Z,19.46
2016-06-09T12:15:01.871Z,19.5
2016-06-09T12:16:01.859Z,19.58
2016-06-09T12:17:01.815Z,19.73
2016-06-09T12:18:01.802Z,19.86
2016-06-09T12:19:01.805Z,19.93
2016-06-09T12:20:01.777Z,20.02
2016-06-09T12:21:01.780Z,20
2016-06-09T12:22:02.267Z,19.9
2016-06-09T12:23:01.567Z,20.03
2016-06-09T12:24:01.540Z,20.02
2016-06-09T12:25:01.542Z,20.15
2016-06-09T12:26:01.671Z,20.21
2016-06-09T12:27:01.658Z,20.25
2016-06-09T12:28:01.629Z,20.43
2016-06-09T12:29:01.617Z,20.54
2016-06-09T12:30:01.605Z,20.62
2016-06-09T12:31:01.576Z,20.68
2016-06-09T12:32:01.579Z,20.68
2016-06-09T12:33:01.551Z,20.79
2016-06-09T12:34:01.539Z,20.76
2016-06-09T12:35:01.526Z,20.65
2016-06-09T12:36:02.608Z,20.81
2016-06-09T12:37:01.345Z,20.87
2016-06-09T12:38:01.473Z,20.83
2016-06-09T12:39:01.460Z,20.91
2016-06-09T12:40:01.447Z,20.98
2016-06-09T12:41:01.420Z,21.02
2016-06-09T12:42:01.392Z,20.87
2016-06-09T12:43:01.379Z,20.83
2016-06-09T12:44:01.366Z,20.81
2016-06-09T12:45:01.354Z,20.74
2016-06-09T12:46:01.341Z,20.81
2016-06-09T12:47:01.329Z,20.81
2016-06-09T12:48:01.300Z,20.79
2016-06-09T12:49:01.303Z,20.77
2016-06-09T12:50:01.276Z,20.84
2016-06-09T12:51:01.263Z,20.84
2016-06-09T12:52:01.937Z,20.98
2016-06-09T12:53:01.222Z,21.01
2016-06-09T12:54:01.225Z,21.05
2016-06-09T12:55:01.182Z,21.19